sensor_id;sensor_type;location;lat;lon;timestamp;P1;durP1;ratioP1;P2;durP2;ratioP2
69026;SDS011;56080;47.594;19.116;2022-08-21T00:02:45;5.20;;;2.90;;
69026;SDS011;56080;47.594;19.116;2022-08-21T00:07:40;4.60;;;2.50;;
69026;SDS011;56080;47.594;19.116;2022-08-21T00:12:41;4.60;;;2.50;;
69026;SDS011;56080;47.594;19.116;2022-08-21T00:17:40;4.70;;;2.50;;
69026;SDS011;56080;47.594;19.116;2022-08-21T00:22:40;4.70;;;2.50;;
69026;SDS011;56080;47.594;19.116;2022-08-21T00:27:41;4.40;;;2.20;;
69026;SDS011;56080;47.594;19.116;2022-08-21T00:32:40;4.40;;;2.20;;
69026;SDS011;56080;47.594;19.116;2022-08-21T00:37:45;4.20;;;2.20;;
69026;SDS011;56080;47.594;19.116;2022-08-21T00:42:40;4.20;;;2.20;;
69026;SDS011;56080;47.594;19.116;2022-08-21T00:47:40;4.10;;;2.20;;
69026;SDS011;56080;47.594;19.116;2022-08-21T00:52:43;4.10;;;2.20;;
69026;SDS011;56080;47.594;19.116;2022-08-21T00:57:48;4.70;;;2.00;;
69026;SDS011;56080;47.594;19.116;2022-08-21T01:02:41;4.70;;;2.00;;
69026;SDS011;56080;47.594;19.116;2022-08-21T01:07:41;4.30;;;2.20;;
69026;SDS011;56080;47.594;19.116;2022-08-21T01:12:41;4.30;;;2.20;;
69026;SDS011;56080;47.594;19.116;2022-08-21T01:17:41;3.90;;;2.00;;
69026;SDS011;56080;47.594;19.116;2022-08-21T01:22:41;3.90;;;2.00;;
69026;SDS011;56080;47.594;19.116;2022-08-21T01:27:41;4.40;;;2.30;;
69026;SDS011;56080;47.594;19.116;2022-08-21T01:32:41;4.40;;;2.30;;
69026;SDS011;56080;47.594;19.116;2022-08-21T01:37:41;4.80;;;2.10;;
69026;SDS011;56080;47.594;19.116;2022-08-21T01:42:41;4.80;;;2.10;;
69026;SDS011;56080;47.594;19.116;2022-08-21T01:47:41;4.30;;;2.40;;
69026;SDS011;56080;47.594;19.116;2022-08-21T01:57:41;4.20;;;2.40;;
69026;SDS011;56080;47.594;19.116;2022-08-21T02:02:40;4.20;;;2.40;;
69026;SDS011;56080;47.594;19.116;2022-08-21T02:07:51;4.50;;;2.20;;
69026;SDS011;56080;47.594;19.116;2022-08-21T02:12:40;4.50;;;2.20;;
69026;SDS011;56080;47.594;19.116;2022-08-21T02:17:52;4.40;;;2.30;;
69026;SDS011;56080;47.594;19.116;2022-08-21T02:22:40;4.40;;;2.30;;
69026;SDS011;56080;47.594;19.116;2022-08-21T02:27:53;4.90;;;2.40;;
69026;SDS011;56080;47.594;19.116;2022-08-21T02:32:40;4.90;;;2.40;;
69026;SDS011;56080;47.594;19.116;2022-08-21T02:37:49;4.80;;;2.60;;
69026;SDS011;56080;47.594;19.116;2022-08-21T02:42:40;4.80;;;2.60;;
69026;SDS011;56080;47.594;19.116;2022-08-21T02:52:41;5.30;;;2.70;;
69026;SDS011;56080;47.594;19.116;2022-08-21T02:57:42;5.30;;;2.90;;
69026;SDS011;56080;47.594;19.116;2022-08-21T03:02:40;5.30;;;2.90;;
69026;SDS011;56080;47.594;19.116;2022-08-21T03:07:41;5.30;;;3.10;;
69026;SDS011;56080;47.594;19.116;2022-08-21T03:12:41;5.30;;;3.10;;
69026;SDS011;56080;47.594;19.116;2022-08-21T03:17:40;5.20;;;2.90;;
69026;SDS011;56080;47.594;19.116;2022-08-21T03:22:42;5.20;;;2.90;;
69026;SDS011;56080;47.594;19.116;2022-08-21T03:27:41;5.40;;;3.20;;
69026;SDS011;56080;47.594;19.116;2022-08-21T03:32:41;5.40;;;3.20;;
69026;SDS011;56080;47.594;19.116;2022-08-21T03:37:41;4.90;;;2.80;;
69026;SDS011;56080;47.594;19.116;2022-08-21T03:42:40;4.90;;;2.80;;
69026;SDS011;56080;47.594;19.116;2022-08-21T03:52:40;4.90;;;2.80;;
69026;SDS011;56080;47.594;19.116;2022-08-21T03:57:40;5.10;;;2.80;;
69026;SDS011;56080;47.594;19.116;2022-08-21T04:02:42;5.10;;;2.80;;
69026;SDS011;56080;47.594;19.116;2022-08-21T04:07:40;5.70;;;3.20;;
69026;SDS011;56080;47.594;19.116;2022-08-21T04:12:40;5.70;;;3.20;;
69026;SDS011;56080;47.594;19.116;2022-08-21T04:17:41;4.80;;;2.80;;
69026;SDS011;56080;47.594;19.116;2022-08-21T04:22:41;4.80;;;2.80;;
69026;SDS011;56080;47.594;19.116;2022-08-21T04:27:41;5.70;;;3.20;;
69026;SDS011;56080;47.594;19.116;2022-08-21T04:32:42;5.70;;;3.20;;
69026;SDS011;56080;47.594;19.116;2022-08-21T04:37:40;5.70;;;3.20;;
69026;SDS011;56080;47.594;19.116;2022-08-21T04:42:42;5.70;;;3.20;;
69026;SDS011;56080;47.594;19.116;2022-08-21T04:47:51;6.30;;;3.40;;
69026;SDS011;56080;47.594;19.116;2022-08-21T04:52:40;6.30;;;3.40;;
69026;SDS011;56080;47.594;19.116;2022-08-21T04:57:51;5.80;;;3.60;;
69026;SDS011;56080;47.594;19.116;2022-08-21T05:02:44;5.80;;;3.60;;
69026;SDS011;56080;47.594;19.116;2022-08-21T05:07:52;6.70;;;4.00;;
69026;SDS011;56080;47.594;19.116;2022-08-21T05:12:41;6.70;;;4.00;;
69026;SDS011;56080;47.594;19.116;2022-08-21T05:17:41;5.80;;;3.50;;
69026;SDS011;56080;47.594;19.116;2022-08-21T05:22:40;5.80;;;3.50;;
69026;SDS011;56080;47.594;19.116;2022-08-21T05:27:42;6.40;;;4.10;;
69026;SDS011;56080;47.594;19.116;2022-08-21T05:32:41;6.40;;;4.10;;
69026;SDS011;56080;47.594;19.116;2022-08-21T05:37:41;6.30;;;3.80;;
69026;SDS011;56080;47.594;19.116;2022-08-21T05:42:41;6.30;;;3.80;;
69026;SDS011;56080;47.594;19.116;2022-08-21T05:47:40;6.10;;;3.80;;
69026;SDS011;56080;47.594;19.116;2022-08-21T05:52:41;6.10;;;3.80;;
69026;SDS011;56080;47.594;19.116;2022-08-21T05:57:41;5.30;;;3.10;;
69026;SDS011;56080;47.594;19.116;2022-08-21T06:02:41;5.30;;;3.10;;
69026;SDS011;56080;47.594;19.116;2022-08-21T06:07:41;6.40;;;3.40;;
69026;SDS011;56080;47.594;19.116;2022-08-21T06:12:40;6.40;;;3.40;;
69026;SDS011;56080;47.594;19.116;2022-08-21T06:17:40;5.60;;;3.20;;
69026;SDS011;56080;47.594;19.116;2022-08-21T06:22:41;5.60;;;3.20;;
69026;SDS011;56080;47.594;19.116;2022-08-21T06:27:40;5.60;;;3.50;;
69026;SDS011;56080;47.594;19.116;2022-08-21T06:32:41;5.60;;;3.50;;
69026;SDS011;56080;47.594;19.116;2022-08-21T06:37:41;5.00;;;3.20;;
69026;SDS011;56080;47.594;19.116;2022-08-21T06:42:41;5.00;;;3.20;;
69026;SDS011;56080;47.594;19.116;2022-08-21T06:47:40;5.10;;;3.00;;
69026;SDS011;56080;47.594;19.116;2022-08-21T06:52:41;5.10;;;3.00;;
69026;SDS011;56080;47.594;19.116;2022-08-21T06:57:41;5.10;;;3.00;;
69026;SDS011;56080;47.594;19.116;2022-08-21T07:02:41;5.10;;;3.00;;
69026;SDS011;56080;47.594;19.116;2022-08-21T07:07:41;5.50;;;3.10;;
69026;SDS011;56080;47.594;19.116;2022-08-21T07:12:41;5.50;;;3.10;;
69026;SDS011;56080;47.594;19.116;2022-08-21T07:17:41;5.90;;;3.60;;
69026;SDS011;56080;47.594;19.116;2022-08-21T07:22:41;5.90;;;3.60;;
69026;SDS011;56080;47.594;19.116;2022-08-21T07:32:41;5.10;;;3.60;;
69026;SDS011;56080;47.594;19.116;2022-08-21T07:37:40;6.30;;;3.80;;
69026;SDS011;56080;47.594;19.116;2022-08-21T07:42:41;6.30;;;3.80;;
69026;SDS011;56080;47.594;19.116;2022-08-21T07:47:50;6.20;;;3.80;;
69026;SDS011;56080;47.594;19.116;2022-08-21T07:52:43;6.20;;;3.80;;
69026;SDS011;56080;47.594;19.116;2022-08-21T07:57:41;5.40;;;3.60;;
69026;SDS011;56080;47.594;19.116;2022-08-21T08:02:43;5.40;;;3.60;;
69026;SDS011;56080;47.594;19.116;2022-08-21T08:07:41;5.00;;;3.10;;
69026;SDS011;56080;47.594;19.116;2022-08-21T08:12:41;5.00;;;3.10;;
69026;SDS011;56080;47.594;19.116;2022-08-21T08:17:42;5.80;;;3.70;;
69026;SDS011;56080;47.594;19.116;2022-08-21T08:22:41;5.80;;;3.70;;
69026;SDS011;56080;47.594;19.116;2022-08-21T08:27:41;5.50;;;3.80;;
69026;SDS011;56080;47.594;19.116;2022-08-21T08:32:41;5.50;;;3.80;;
69026;SDS011;56080;47.594;19.116;2022-08-21T08:37:48;5.90;;;3.70;;
69026;SDS011;56080;47.594;19.116;2022-08-21T08:42:45;5.90;;;3.70;;
69026;SDS011;56080;47.594;19.116;2022-08-21T08:47:43;6.40;;;4.30;;
69026;SDS011;56080;47.594;19.116;2022-08-21T08:52:46;6.40;;;4.30;;
69026;SDS011;56080;47.594;19.116;2022-08-21T08:57:44;6.00;;;4.30;;
69026;SDS011;56080;47.594;19.116;2022-08-21T09:02:44;6.00;;;4.30;;
69026;SDS011;56080;47.594;19.116;2022-08-21T09:07:46;7.20;;;4.30;;
69026;SDS011;56080;47.594;19.116;2022-08-21T09:27:41;7.80;;;4.70;;
69026;SDS011;56080;47.594;19.116;2022-08-21T09:32:49;7.80;;;4.70;;
69026;SDS011;56080;47.594;19.116;2022-08-21T09:37:46;7.90;;;4.60;;
69026;SDS011;56080;47.594;19.116;2022-08-21T09:42:52;7.90;;;4.60;;
69026;SDS011;56080;47.594;19.116;2022-08-21T09:47:41;7.00;;;4.90;;
69026;SDS011;56080;47.594;19.116;2022-08-21T09:52:45;7.00;;;4.90;;
69026;SDS011;56080;47.594;19.116;2022-08-21T09:57:48;7.20;;;5.00;;
69026;SDS011;56080;47.594;19.116;2022-08-21T10:02:45;7.20;;;5.00;;
69026;SDS011;56080;47.594;19.116;2022-08-21T10:07:41;6.80;;;5.20;;
69026;SDS011;56080;47.594;19.116;2022-08-21T10:12:48;6.80;;;5.20;;
69026;SDS011;56080;47.594;19.116;2022-08-21T10:32:52;7.90;;;6.10;;
69026;SDS011;56080;47.594;19.116;2022-08-21T10:37:52;7.70;;;5.90;;
69026;SDS011;56080;47.594;19.116;2022-08-21T10:42:52;7.70;;;5.90;;
69026;SDS011;56080;47.594;19.116;2022-08-21T10:47:47;8.20;;;5.60;;
69026;SDS011;56080;47.594;19.116;2022-08-21T11:07:48;7.20;;;5.40;;
69026;SDS011;56080;47.594;19.116;2022-08-21T11:12:52;7.20;;;5.40;;
69026;SDS011;56080;47.594;19.116;2022-08-21T11:17:50;6.70;;;4.90;;
69026;SDS011;56080;47.594;19.116;2022-08-21T11:22:51;6.70;;;4.90;;
69026;SDS011;56080;47.594;19.116;2022-08-21T11:28:06;6.60;;;5.10;;
69026;SDS011;56080;47.594;19.116;2022-08-21T11:33:22;6.60;;;5.10;;
69026;SDS011;56080;47.594;19.116;2022-08-21T11:42:52;6.90;;;4.70;;
69026;SDS011;56080;47.594;19.116;2022-08-21T11:52:50;6.40;;;4.80;;
69026;SDS011;56080;47.594;19.116;2022-08-21T12:07:44;7.10;;;4.80;;
69026;SDS011;56080;47.594;19.116;2022-08-21T12:12:44;7.10;;;4.80;;
69026;SDS011;56080;47.594;19.116;2022-08-21T12:18:02;6.70;;;4.60;;
69026;SDS011;56080;47.594;19.116;2022-08-21T12:22:51;6.70;;;4.60;;
69026;SDS011;56080;47.594;19.116;2022-08-21T12:27:51;6.90;;;4.30;;
69026;SDS011;56080;47.594;19.116;2022-08-21T12:33:01;6.90;;;4.30;;
69026;SDS011;56080;47.594;19.116;2022-08-21T12:37:52;6.00;;;4.30;;
69026;SDS011;56080;47.594;19.116;2022-08-21T12:42:50;6.00;;;4.30;;
69026;SDS011;56080;47.594;19.116;2022-08-21T12:47:45;6.70;;;4.80;;
69026;SDS011;56080;47.594;19.116;2022-08-21T12:52:57;6.70;;;4.80;;
69026;SDS011;56080;47.594;19.116;2022-08-21T12:57:42;6.70;;;4.80;;
69026;SDS011;56080;47.594;19.116;2022-08-21T13:02:43;7.00;;;5.00;;
69026;SDS011;56080;47.594;19.116;2022-08-21T13:07:45;7.70;;;5.20;;
69026;SDS011;56080;47.594;19.116;2022-08-21T13:12:43;7.70;;;5.20;;
69026;SDS011;56080;47.594;19.116;2022-08-21T13:17:45;7.70;;;5.20;;
69026;SDS011;56080;47.594;19.116;2022-08-21T13:22:51;7.20;;;5.20;;
69026;SDS011;56080;47.594;19.116;2022-08-21T13:27:41;7.20;;;5.20;;
69026;SDS011;56080;47.594;19.116;2022-08-21T13:32:45;6.80;;;5.10;;
69026;SDS011;56080;47.594;19.116;2022-08-21T13:37:41;6.80;;;5.10;;
69026;SDS011;56080;47.594;19.116;2022-08-21T13:42:42;6.40;;;4.50;;
69026;SDS011;56080;47.594;19.116;2022-08-21T13:47:41;6.40;;;4.50;;
69026;SDS011;56080;47.594;19.116;2022-08-21T13:53:00;6.40;;;4.70;;
69026;SDS011;56080;47.594;19.116;2022-08-21T13:57:42;6.40;;;4.70;;
69026;SDS011;56080;47.594;19.116;2022-08-21T14:02:49;6.60;;;4.20;;
69026;SDS011;56080;47.594;19.116;2022-08-21T14:07:46;6.60;;;4.20;;
69026;SDS011;56080;47.594;19.116;2022-08-21T14:12:47;5.80;;;3.50;;
69026;SDS011;56080;47.594;19.116;2022-08-21T14:17:47;5.80;;;3.50;;
69026;SDS011;56080;47.594;19.116;2022-08-21T14:22:44;4.90;;;3.20;;
69026;SDS011;56080;47.594;19.116;2022-08-21T14:27:43;4.90;;;3.20;;
69026;SDS011;56080;47.594;19.116;2022-08-21T14:32:47;4.50;;;2.60;;
69026;SDS011;56080;47.594;19.116;2022-08-21T14:37:41;4.50;;;2.60;;
69026;SDS011;56080;47.594;19.116;2022-08-21T14:42:41;5.20;;;2.70;;
69026;SDS011;56080;47.594;19.116;2022-08-21T14:47:41;5.20;;;2.70;;
69026;SDS011;56080;47.594;19.116;2022-08-21T14:52:41;4.20;;;2.40;;
69026;SDS011;56080;47.594;19.116;2022-08-21T14:57:41;4.20;;;2.40;;
69026;SDS011;56080;47.594;19.116;2022-08-21T15:02:41;4.60;;;2.50;;
69026;SDS011;56080;47.594;19.116;2022-08-21T15:07:41;4.60;;;2.50;;
69026;SDS011;56080;47.594;19.116;2022-08-21T15:12:41;5.60;;;2.20;;
69026;SDS011;56080;47.594;19.116;2022-08-21T15:17:41;5.60;;;2.20;;
69026;SDS011;56080;47.594;19.116;2022-08-21T15:22:41;4.40;;;2.30;;
69026;SDS011;56080;47.594;19.116;2022-08-21T15:27:41;4.40;;;2.30;;
69026;SDS011;56080;47.594;19.116;2022-08-21T15:32:41;4.60;;;2.20;;
69026;SDS011;56080;47.594;19.116;2022-08-21T15:37:41;4.60;;;2.20;;
69026;SDS011;56080;47.594;19.116;2022-08-21T15:42:41;3.90;;;2.00;;
69026;SDS011;56080;47.594;19.116;2022-08-21T15:47:43;3.90;;;2.00;;
69026;SDS011;56080;47.594;19.116;2022-08-21T15:52:41;3.70;;;1.70;;
69026;SDS011;56080;47.594;19.116;2022-08-21T15:57:42;3.70;;;1.70;;
69026;SDS011;56080;47.594;19.116;2022-08-21T16:02:42;3.70;;;1.80;;
69026;SDS011;56080;47.594;19.116;2022-08-21T16:07:41;3.70;;;1.80;;
69026;SDS011;56080;47.594;19.116;2022-08-21T16:12:46;4.10;;;1.80;;
69026;SDS011;56080;47.594;19.116;2022-08-21T16:17:43;4.10;;;1.80;;
69026;SDS011;56080;47.594;19.116;2022-08-21T16:22:51;3.70;;;1.70;;
69026;SDS011;56080;47.594;19.116;2022-08-21T16:27:46;3.70;;;1.70;;
69026;SDS011;56080;47.594;19.116;2022-08-21T16:32:41;4.40;;;2.00;;
69026;SDS011;56080;47.594;19.116;2022-08-21T16:37:41;4.40;;;2.00;;
69026;SDS011;56080;47.594;19.116;2022-08-21T16:42:42;4.60;;;2.00;;
69026;SDS011;56080;47.594;19.116;2022-08-21T16:47:41;4.60;;;2.00;;
69026;SDS011;56080;47.594;19.116;2022-08-21T16:52:41;4.20;;;2.00;;
69026;SDS011;56080;47.594;19.116;2022-08-21T16:57:41;4.20;;;2.00;;
69026;SDS011;56080;47.594;19.116;2022-08-21T17:02:46;4.60;;;1.80;;
69026;SDS011;56080;47.594;19.116;2022-08-21T17:07:47;4.60;;;1.80;;
69026;SDS011;56080;47.594;19.116;2022-08-21T17:17:43;4.50;;;2.00;;
69026;SDS011;56080;47.594;19.116;2022-08-21T17:22:41;4.70;;;2.00;;
69026;SDS011;56080;47.594;19.116;2022-08-21T17:27:41;4.70;;;2.00;;
69026;SDS011;56080;47.594;19.116;2022-08-21T17:32:42;4.80;;;2.10;;
69026;SDS011;56080;47.594;19.116;2022-08-21T17:37:41;4.80;;;2.10;;
69026;SDS011;56080;47.594;19.116;2022-08-21T17:42:41;4.20;;;1.90;;
69026;SDS011;56080;47.594;19.116;2022-08-21T17:47:41;4.20;;;1.90;;
69026;SDS011;56080;47.594;19.116;2022-08-21T17:52:41;4.30;;;2.10;;
69026;SDS011;56080;47.594;19.116;2022-08-21T17:57:43;4.30;;;2.10;;
69026;SDS011;56080;47.594;19.116;2022-08-21T18:02:42;4.50;;;2.00;;
69026;SDS011;56080;47.594;19.116;2022-08-21T18:07:43;4.50;;;2.00;;
69026;SDS011;56080;47.594;19.116;2022-08-21T18:12:41;5.10;;;2.30;;
69026;SDS011;56080;47.594;19.116;2022-08-21T18:17:45;5.10;;;2.30;;
69026;SDS011;56080;47.594;19.116;2022-08-21T18:22:41;4.80;;;2.20;;
69026;SDS011;56080;47.594;19.116;2022-08-21T18:27:42;4.80;;;2.20;;
69026;SDS011;56080;47.594;19.116;2022-08-21T18:32:43;4.20;;;2.10;;
69026;SDS011;56080;47.594;19.116;2022-08-21T18:37:42;4.20;;;2.10;;
69026;SDS011;56080;47.594;19.116;2022-08-21T18:42:45;4.30;;;2.00;;
69026;SDS011;56080;47.594;19.116;2022-08-21T18:47:47;4.30;;;2.00;;
69026;SDS011;56080;47.594;19.116;2022-08-21T18:52:41;4.90;;;2.00;;
69026;SDS011;56080;47.594;19.116;2022-08-21T18:57:42;4.90;;;2.00;;
69026;SDS011;56080;47.594;19.116;2022-08-21T19:02:41;4.20;;;2.00;;
69026;SDS011;56080;47.594;19.116;2022-08-21T19:07:41;4.20;;;2.00;;
69026;SDS011;56080;47.594;19.116;2022-08-21T19:12:42;4.90;;;2.10;;
69026;SDS011;56080;47.594;19.116;2022-08-21T19:17:42;4.90;;;2.10;;
69026;SDS011;56080;47.594;19.116;2022-08-21T19:22:41;4.20;;;1.80;;
69026;SDS011;56080;47.594;19.116;2022-08-21T19:27:42;4.20;;;1.80;;
69026;SDS011;56080;47.594;19.116;2022-08-21T19:32:42;4.60;;;1.80;;
69026;SDS011;56080;47.594;19.116;2022-08-21T19:37:42;4.60;;;1.80;;
69026;SDS011;56080;47.594;19.116;2022-08-21T19:42:41;4.30;;;1.80;;
69026;SDS011;56080;47.594;19.116;2022-08-21T19:47:45;4.30;;;1.80;;
69026;SDS011;56080;47.594;19.116;2022-08-21T19:52:42;3.90;;;1.60;;
69026;SDS011;56080;47.594;19.116;2022-08-21T19:57:42;3.90;;;1.60;;
69026;SDS011;56080;47.594;19.116;2022-08-21T20:02:41;3.60;;;1.50;;
69026;SDS011;56080;47.594;19.116;2022-08-21T20:07:43;3.60;;;1.50;;
69026;SDS011;56080;47.594;19.116;2022-08-21T20:12:41;3.90;;;1.50;;
69026;SDS011;56080;47.594;19.116;2022-08-21T20:17:41;3.90;;;1.50;;
69026;SDS011;56080;47.594;19.116;2022-08-21T20:22:42;4.00;;;1.60;;
69026;SDS011;56080;47.594;19.116;2022-08-21T20:27:47;4.00;;;1.60;;
69026;SDS011;56080;47.594;19.116;2022-08-21T20:32:43;4.00;;;1.60;;
69026;SDS011;56080;47.594;19.116;2022-08-21T20:42:45;3.70;;;1.70;;
69026;SDS011;56080;47.594;19.116;2022-08-21T20:47:41;3.70;;;1.70;;
69026;SDS011;56080;47.594;19.116;2022-08-21T20:52:43;3.50;;;1.60;;
69026;SDS011;56080;47.594;19.116;2022-08-21T20:57:55;3.50;;;1.60;;
69026;SDS011;56080;47.594;19.116;2022-08-21T21:07:54;4.40;;;1.70;;
69026;SDS011;56080;47.594;19.116;2022-08-21T21:12:43;3.50;;;1.50;;
69026;SDS011;56080;47.594;19.116;2022-08-21T21:22:49;3.60;;;1.50;;
69026;SDS011;56080;47.594;19.116;2022-08-21T21:27:50;3.60;;;1.50;;
69026;SDS011;56080;47.594;19.116;2022-08-21T21:32:41;3.20;;;1.10;;
69026;SDS011;56080;47.594;19.116;2022-08-21T21:37:55;3.20;;;1.10;;
69026;SDS011;56080;47.594;19.116;2022-08-21T22:02:53;3.90;;;1.30;;
69026;SDS011;56080;47.594;19.116;2022-08-21T22:12:49;3.80;;;1.30;;
69026;SDS011;56080;47.594;19.116;2022-08-21T22:17:48;3.80;;;1.30;;
69026;SDS011;56080;47.594;19.116;2022-08-21T22:22:43;3.60;;;1.30;;
69026;SDS011;56080;47.594;19.116;2022-08-21T22:27:43;3.60;;;1.30;;
69026;SDS011;56080;47.594;19.116;2022-08-21T22:32:47;3.60;;;1.20;;
69026;SDS011;56080;47.594;19.116;2022-08-21T22:37:48;3.60;;;1.20;;
69026;SDS011;56080;47.594;19.116;2022-08-21T22:42:41;3.70;;;1.30;;
69026;SDS011;56080;47.594;19.116;2022-08-21T22:47:43;3.70;;;1.30;;
69026;SDS011;56080;47.594;19.116;2022-08-21T22:52:45;3.50;;;1.20;;
69026;SDS011;56080;47.594;19.116;2022-08-21T22:57:43;3.50;;;1.20;;
69026;SDS011;56080;47.594;19.116;2022-08-21T23:07:43;3.60;;;1.40;;
69026;SDS011;56080;47.594;19.116;2022-08-21T23:12:48;3.40;;;1.30;;
69026;SDS011;56080;47.594;19.116;2022-08-21T23:17:53;3.40;;;1.30;;
69026;SDS011;56080;47.594;19.116;2022-08-21T23:22:52;3.80;;;1.50;;
69026;SDS011;56080;47.594;19.116;2022-08-21T23:38:01;4.10;;;1.60;;
69026;SDS011;56080;47.594;19.116;2022-08-21T23:42:53;3.80;;;1.60;;
